Time;durP1;ratioP1;P1;durP2;ratioP2;P2;SDS_P1;SDS_P2;PMS_P1;PMS_P2;Temp;Humidity;BMP_temperature;BMP_pressure;BME280_temperature;BME280_humidity;BME280_pressure;Samples;Min_cycle;Max_cycle;Signal;HPM_P1;HPM_P2
2021/03/29 00:01:06;;;;;;;6.95;4.20;;;;;;;1.56;61.09;98553.86;1758337;81;21170;-81
2021/03/29 00:04:16;;;;;;;6.53;4.10;;;;;;;1.54;61.10;98548.67;1763058;81;21138;-80
2021/03/29 00:07:27;;;;;;;7.87;4.35;;;;;;;1.52;60.99;98554.37;1750999;81;21260;-82
2021/03/29 00:11:00;;;;;;;6.85;4.00;;;;;;;1.51;61.23;98550.05;1671735;83;21238;-82
2021/03/29 00:14:16;;;;;;;9.38;4.75;;;;;;;1.46;61.41;98548.43;1622953;88;21391;-83
2021/03/29 00:17:21;;;;;;;7.28;4.15;;;;;;;1.42;61.47;98549.37;1709409;84;21244;-81
2021/03/29 00:21:14;;;;;;;6.83;4.15;;;;;;;1.35;61.83;98552.09;1684859;82;21330;-83
2021/03/29 00:24:38;;;;;;;6.78;4.20;;;;;;;1.30;61.54;98549.17;1618764;86;21256;-83
2021/03/29 00:27:57;;;;;;;5.53;4.20;;;;;;;1.20;62.12;98550.65;1578136;89;21179;-83
2021/03/29 00:31:08;;;;;;;8.13;5.10;;;;;;;1.17;62.71;98545.50;1855302;77;23350;-82
2021/03/29 00:34:16;;;;;;;7.85;4.47;;;;;;;1.07;62.29;98542.23;1801870;78;21145;-81
2021/03/29 00:37:43;;;;;;;10.85;5.40;;;;;;;1.06;62.42;98549.61;1809216;78;21077;-81
2021/03/29 00:40:31;;;;;;;7.92;5.00;;;;;;;1.06;62.45;98552.66;1725676;82;21166;-81
2021/03/29 00:43:40;;;;;;;9.18;5.53;;;;;;;1.04;62.41;98553.97;1701871;84;21143;-82
2021/03/29 00:46:59;;;;;;;12.53;5.65;;;;;;;1.13;63.28;98553.38;1827790;77;25412;-83
2021/03/29 00:49:41;;;;;;;9.63;5.70;;;;;;;1.08;62.96;98549.57;1831486;78;21349;-83
2021/03/29 00:52:58;;;;;;;7.95;5.60;;;;;;;1.07;62.80;98546.55;1809792;78;21293;-81
2021/03/29 00:55:52;;;;;;;10.03;5.92;;;;;;;1.14;62.97;98541.69;1795092;80;21135;-82
2021/03/29 00:58:59;;;;;;;8.53;5.47;;;;;;;1.14;62.91;98550.78;1756855;81;21151;-82
2021/03/29 01:02:23;;;;;;;9.37;5.87;;;;;;;1.17;63.08;98551.16;1750649;81;21238;-82
2021/03/29 01:09:13;;;;;;;9.28;6.50;;;;;;;1.17;62.72;98549.85;1687306;85;21129;-82
2021/03/29 01:12:23;;;;;;;10.13;5.77;;;;;;;1.07;62.66;98555.65;1658593;85;21175;-82
2021/03/29 01:15:43;;;;;;;9.93;6.07;;;;;;;0.96;62.48;98554.55;1664597;85;21133;-82
2021/03/29 01:18:26;;;;;;;9.80;6.50;;;;;;;0.91;62.74;98549.45;1691323;85;21298;-81
2021/03/29 01:21:54;;;;;;;9.98;6.00;;;;;;;0.86;62.75;98549.11;1690483;85;21188;-81
2021/03/29 01:25:18;;;;;;;10.30;6.40;;;;;;;0.82;62.83;98556.09;1768491;81;21159;-80
2021/03/29 01:28:13;;;;;;;9.40;6.60;;;;;;;0.85;63.42;98558.65;1828939;77;24171;-82
2021/03/29 01:31:05;;;;;;;8.77;5.97;;;;;;;0.79;63.31;98558.73;1791092;80;21125;-82
2021/03/29 01:34:14;;;;;;;9.03;5.20;;;;;;;0.77;63.29;98559.23;1791468;80;21534;-81
2021/03/29 01:37:26;;;;;;;8.18;4.92;;;;;;;0.76;63.43;98560.11;1667271;85;21451;-82
2021/03/29 01:40:40;;;;;;;8.97;5.07;;;;;;;0.74;63.29;98557.97;1678121;84;21164;-83
2021/03/29 01:43:38;;;;;;;8.65;5.08;;;;;;;0.70;63.31;98553.70;1700512;84;21266;-82
2021/03/29 01:46:43;;;;;;;5.47;4.00;;;;;;;0.65;63.30;98548.59;1680688;83;21218;-83
2021/03/29 01:52:19;;;;;;;6.12;4.12;;;;;;;0.61;63.25;98551.69;1677526;83;21336;-84
2021/03/29 01:55:36;;;;;;;5.70;3.83;;;;;;;0.61;63.57;98551.69;1614240;85;21170;-82
2021/03/29 01:58:49;;;;;;;11.17;4.40;;;;;;;0.59;63.76;98550.88;1677624;84;21173;-81
2021/03/29 02:02:16;;;;;;;8.70;4.70;;;;;;;0.59;63.65;98552.17;1728437;80;21171;-83
2021/03/29 02:05:51;;;;;;;5.03;3.30;;;;;;;0.57;63.83;98553.06;1668128;85;21163;-81
2021/03/29 02:09:01;;;;;;;8.70;4.33;;;;;;;0.50;63.71;98545.84;1667911;85;21242;-83
2021/03/29 02:12:17;;;;;;;8.08;4.70;;;;;;;0.42;63.82;98549.84;1667139;85;21124;-80
2021/03/29 02:15:20;;;;;;;5.72;4.00;;;;;;;0.35;64.29;98549.95;1667232;83;21156;-81
2021/03/29 02:18:56;;;;;;;10.20;5.27;;;;;;;0.30;64.62;98558.69;1697824;83;21116;-82
2021/03/29 02:22:23;;;;;;;8.23;4.87;;;;;;;0.27;64.33;98556.12;1668633;82;21151;-83
2021/03/29 02:26:08;;;;;;;10.50;5.20;;;;;;;0.25;64.48;98551.39;1752661;81;21276;-82
2021/03/29 02:29:28;;;;;;;7.23;4.27;;;;;;;0.25;64.70;98551.84;1739116;82;21331;-82
2021/03/29 02:32:31;;;;;;;8.63;4.07;;;;;;;0.21;65.02;98551.47;1725033;81;21151;-80
2021/03/29 02:35:49;;;;;;;8.10;4.60;;;;;;;0.20;64.76;98561.42;1708707;84;21263;-82
2021/03/29 02:39:15;;;;;;;8.00;4.40;;;;;;;0.15;64.83;98562.36;1698556;83;21148;-81
2021/03/29 02:42:27;;;;;;;7.93;5.13;;;;;;;0.12;64.87;98562.85;1711450;83;21135;-81
2021/03/29 02:45:47;;;;;;;8.30;4.50;;;;;;;0.10;65.05;98569.33;1638725;86;21165;-81
2021/03/29 02:49:05;;;;;;;9.37;4.43;;;;;;;0.10;65.29;98562.01;1668335;86;21307;-81
2021/03/29 02:52:05;;;;;;;10.40;5.42;;;;;;;0.08;65.28;98567.23;1600293;88;21164;-82
2021/03/29 02:54:59;;;;;;;12.30;5.40;;;;;;;0.03;65.07;98556.50;1599335;87;21289;-81
2021/03/29 02:58:38;;;;;;;11.77;4.83;;;;;;;-0.02;65.27;98560.00;1630582;87;21215;-82
2021/03/29 03:02:01;;;;;;;10.93;5.37;;;;;;;-0.01;65.25;98563.47;1637437;86;21737;-82
2021/03/29 03:09:24;;;;;;;10.33;5.90;;;;;;;-0.11;65.24;98566.61;1704967;81;21257;-81
2021/03/29 03:12:58;;;;;;;9.53;4.97;;;;;;;-0.18;65.62;98558.50;1694308;84;21111;-83
2021/03/29 03:17:01;;;;;;;10.03;5.07;;;;;;;-0.24;65.48;98561.19;1740433;82;21119;-82
2021/03/29 03:20:17;;;;;;;8.43;5.17;;;;;;;-0.30;65.71;98554.34;1650777;85;21200;-82
2021/03/29 03:23:59;;;;;;;11.27;5.93;;;;;;;-0.35;66.14;98562.61;1657085;87;21817;-82
2021/03/29 03:27:21;;;;;;;12.43;6.40;;;;;;;-0.33;66.16;98561.73;1664123;84;21172;-82
2021/03/29 03:30:34;;;;;;;16.53;5.43;;;;;;;-0.33;66.12;98556.55;1662057;86;21289;-80
2021/03/29 03:33:57;;;;;;;10.33;5.60;;;;;;;-0.35;65.97;98559.59;1671870;84;21281;-82
2021/03/29 03:40:46;;;;;;;10.33;5.03;;;;;;;-0.43;66.16;98564.44;1752750;81;21146;-82
2021/03/29 03:44:19;;;;;;;17.13;6.23;;;;;;;-0.47;65.76;98568.80;1764431;80;21168;-81
2021/03/29 03:47:50;;;;;;;13.00;6.87;;;;;;;-0.49;66.00;98569.25;1730043;82;21138;-82
2021/03/29 03:50:40;;;;;;;18.37;7.60;;;;;;;-0.49;66.59;98577.91;1773664;81;21126;-82
2021/03/29 03:53:52;;;;;;;17.10;9.10;;;;;;;-0.50;66.12;98575.30;1701274;83;21304;-83
2021/03/29 03:57:54;;;;;;;10.87;6.80;;;;;;;-0.54;66.26;98578.38;1730870;81;21098;-80
2021/03/29 04:01:38;;;;;;;22.15;8.70;;;;;;;-0.50;66.58;98578.77;1688469;84;21114;-82
2021/03/29 04:04:47;;;;;;;13.80;7.20;;;;;;;-0.52;66.33;98577.08;1747241;82;21179;-82
2021/03/29 04:08:04;;;;;;;14.40;8.27;;;;;;;-0.52;66.34;98580.97;1745880;81;21164;-82
2021/03/29 04:11:37;;;;;;;14.30;6.80;;;;;;;-0.53;66.16;98582.69;1745929;80;21142;-82
2021/03/29 04:15:08;;;;;;;18.33;8.00;;;;;;;-0.53;66.00;98583.13;1740844;82;21178;-82
2021/03/29 04:18:11;;;;;;;18.87;8.17;;;;;;;-0.52;66.41;98577.92;1710095;82;21237;-82
2021/03/29 04:21:51;;;;;;;17.27;7.83;;;;;;;-0.49;66.46;98576.60;1701467;82;21102;-83
2021/03/29 04:25:26;;;;;;;18.57;9.60;;;;;;;-0.46;66.44;98573.11;1711391;83;21129;-82
2021/03/29 04:28:56;;;;;;;17.93;8.47;;;;;;;-0.42;66.78;98580.41;1733950;81;21181;-83
2021/03/29 04:32:27;;;;;;;15.57;7.30;;;;;;;-0.43;66.18;98575.67;1701741;84;21166;-82
2021/03/29 04:35:52;;;;;;;16.37;7.57;;;;;;;-0.44;66.18;98579.14;1744048;82;21154;-82
2021/03/29 04:39:42;;;;;;;11.17;5.40;;;;;;;-0.37;66.22;98577.34;1756462;78;21235;-82
2021/03/29 04:42:30;;;;;;;10.70;6.37;;;;;;;-0.33;66.33;98583.76;1644039;82;21227;-80
2021/03/29 04:45:39;;;;;;;9.80;5.10;;;;;;;-0.33;66.34;98578.58;1611525;89;21260;-80
2021/03/29 04:48:49;;;;;;;;;;;;;;;;;;;;;
2021/03/29 04:51:35;;;;;;;11.20;6.40;;;;;;;-0.03;67.17;98573.84;1815702;79;25358;-81
2021/03/29 04:54:07;;;;;;;13.65;7.75;;;;;;;-0.01;66.59;98579.03;1817931;78;21250;-80
2021/03/29 04:56:44;;;;;;;12.23;5.73;;;;;;;0.07;66.49;98576.30;1814716;78;21096;-81
2021/03/29 04:59:12;;;;;;;11.23;6.23;;;;;;;0.10;66.00;98574.97;1831343;78;21588;-80
2021/03/29 05:01:39;;;;;;;10.57;5.83;;;;;;;0.17;65.89;98579.19;1828921;78;21270;-81
2021/03/29 05:04:17;;;;;;;12.20;5.30;;;;;;;0.24;65.96;98579.50;1805283;78;21263;-79
2021/03/29 05:06:55;;;;;;;13.33;5.00;;;;;;;0.28;65.75;98580.31;1795200;78;21135;-83
2021/03/29 05:09:23;;;;;;;13.23;5.37;;;;;;;0.37;66.04;98573.69;1816603;78;21087;-81
2021/03/29 05:11:51;;;;;;;13.57;5.73;;;;;;;0.48;65.62;98585.22;1826021;78;21143;-82
2021/03/29 05:14:22;;;;;;;10.77;5.30;;;;;;;0.60;65.75;98582.41;1815318;78;21271;-80
2021/03/29 05:16:51;;;;;;;12.33;6.03;;;;;;;0.72;65.76;98580.50;1826660;78;21099;-81
2021/03/29 05:19:18;;;;;;;12.60;6.50;;;;;;;0.81;65.41;98586.83;1831686;78;21147;-80
2021/03/29 05:21:45;;;;;;;11.33;6.58;;;;;;;0.92;65.32;98582.77;1822990;78;21162;-81
2021/03/29 05:24:13;;;;;;;15.90;7.57;;;;;;;1.06;65.07;98585.97;1825221;78;21581;-81
2021/03/29 05:26:40;;;;;;;17.17;6.55;;;;;;;1.31;64.90;98584.20;1830565;78;21554;-80
2021/03/29 05:29:07;;;;;;;17.33;6.83;;;;;;;1.64;64.90;98588.34;1817037;78;21235;-80
2021/03/29 05:31:40;;;;;;;11.73;7.25;;;;;;;2.12;64.47;98579.52;1804107;78;21143;-82
2021/03/29 05:34:04;;;;;;;13.80;7.70;;;;;;;2.68;63.42;98579.98;1829085;78;21243;-80
2021/03/29 05:36:32;;;;;;;17.30;8.23;;;;;;;3.25;62.83;98571.54;1824014;78;21834;-79
2021/03/29 05:39:05;;;;;;;14.55;6.87;;;;;;;3.89;62.13;98581.52;1794497;78;21306;-79
2021/03/29 05:41:43;;;;;;;11.43;6.50;;;;;;;4.53;61.41;98576.08;1761516;81;21306;-80
2021/03/29 05:44:15;;;;;;;15.88;6.95;;;;;;;5.16;60.92;98582.27;1767463;80;21149;-84
2021/03/29 05:46:43;;;;;;;13.32;6.55;;;;;;;5.77;58.33;98585.36;1780748;80;21084;-80
2021/03/29 05:49:10;;;;;;;12.28;6.75;;;;;;;6.30;57.04;98575.55;1797553;80;21147;-83
2021/03/29 05:51:39;;;;;;;11.85;6.20;;;;;;;6.92;55.56;98573.05;1782817;80;21144;-82
2021/03/29 05:54:07;;;;;;;17.00;6.55;;;;;;;7.47;53.99;98571.16;1784098;80;21183;-84
2021/03/29 05:56:38;;;;;;;13.88;6.45;;;;;;;7.78;52.28;98576.35;1783616;80;21195;-87
2021/03/29 05:59:15;;;;;;;10.95;6.10;;;;;;;8.13;52.77;98576.50;1783924;80;21455;-88
2021/03/29 06:01:49;;;;;;;11.80;5.63;;;;;;;8.56;52.55;98578.42;1777939;80;21167;-84
2021/03/29 06:04:45;;;;;;;12.80;5.92;;;;;;;8.97;52.45;98577.78;1767333;80;21374;-87
2021/03/29 06:07:21;;;;;;;15.65;7.95;;;;;;;9.36;50.51;98572.73;1782122;80;21290;-87
2021/03/29 06:09:54;;;;;;;10.23;5.17;;;;;;;9.78;50.46;98572.70;1775112;80;21118;-88
2021/03/29 06:12:23;;;;;;;10.58;4.28;;;;;;;10.09;48.81;98568.87;1782832;80;21144;-87
2021/03/29 06:15:03;;;;;;;10.15;4.40;;;;;;;10.44;47.96;98573.55;1782272;80;21643;-86
2021/03/29 06:17:30;;;;;;;10.00;4.35;;;;;;;10.83;46.83;98567.87;1765343;80;21136;-88
2021/03/29 06:20:00;;;;;;;9.98;3.12;;;;;;;11.15;44.49;98564.67;1763097;80;21175;-88
2021/03/29 06:22:32;;;;;;;8.00;3.67;;;;;;;11.48;45.50;98564.06;1768106;80;21604;-87
2021/03/29 06:25:16;;;;;;;13.20;3.33;;;;;;;11.84;44.61;98564.89;1782349;80;21151;-86
2021/03/29 06:27:56;;;;;;;14.58;4.35;;;;;;;12.10;43.77;98570.40;1782823;80;21120;-87
2021/03/29 06:30:34;;;;;;;14.13;3.83;;;;;;;12.46;42.63;98578.24;1783100;80;21088;-81
2021/03/29 06:33:16;;;;;;;9.50;3.70;;;;;;;12.80;41.86;98569.42;1765464;80;21617;-83
2021/03/29 06:35:49;;;;;;;10.60;4.42;;;;;;;13.04;41.63;98571.86;1782632;80;21597;-85
2021/03/29 06:38:27;;;;;;;5.50;3.72;;;;;;;13.18;41.41;98573.58;1772733;80;21100;-84
2021/03/29 06:40:58;;;;;;;5.22;3.52;;;;;;;13.33;40.57;98575.17;1769978;79;21258;-88
2021/03/29 06:43:39;;;;;;;10.35;3.37;;;;;;;13.51;39.41;98577.09;1783019;80;21281;-83
2021/03/29 06:46:11;;;;;;;13.32;3.50;;;;;;;13.67;40.41;98576.88;1781060;80;21139;-83
2021/03/29 06:48:39;;;;;;;11.55;5.00;;;;;;;13.83;38.56;98581.09;1774871;80;21123;-82
2021/03/29 06:51:19;;;;;;;9.08;3.70;;;;;;;13.97;39.67;98584.94;1782859;80;21131;-84
2021/03/29 06:53:58;;;;;;;5.87;3.22;;;;;;;14.08;37.17;98576.70;1776263;80;21564;-87
2021/03/29 06:56:45;;;;;;;10.28;3.45;;;;;;;14.18;38.10;98577.74;1756769;80;21184;-80
2021/03/29 07:02:00;;;;;;;5.15;3.25;;;;;;;14.57;37.71;98573.17;1807753;78;24747;-87
2021/03/29 07:04:27;;;;;;;12.93;3.90;;;;;;;14.57;37.43;98579.80;1808458;78;21135;-86
2021/03/29 07:06:55;;;;;;;14.58;4.53;;;;;;;14.67;36.46;98572.03;1827809;78;21120;-85
2021/03/29 07:09:23;;;;;;;10.48;4.50;;;;;;;14.83;36.64;98575.27;1799064;78;21537;-86
2021/03/29 07:11:51;;;;;;;11.08;3.60;;;;;;;14.93;36.89;98575.91;1802610;78;21584;-87
2021/03/29 07:14:20;;;;;;;6.47;3.15;;;;;;;15.04;35.44;98577.25;1795495;80;21155;-86
2021/03/29 07:16:49;;;;;;;10.90;2.85;;;;;;;15.09;34.44;98575.58;1811499;78;21579;-89
2021/03/29 07:19:16;;;;;;;10.23;3.55;;;;;;;15.21;33.92;98572.00;1806330;78;21568;-87
2021/03/29 07:21:43;;;;;;;15.32;4.00;;;;;;;15.26;34.31;98569.86;1810954;78;21092;-83
2021/03/29 07:24:13;;;;;;;12.03;3.87;;;;;;;15.43;34.54;98571.70;1828226;78;21552;-83
2021/03/29 07:26:57;;;;;;;12.53;4.20;;;;;;;15.64;33.74;98571.84;1812624;78;21123;-87
2021/03/29 07:29:32;;;;;;;6.75;4.58;;;;;;;15.84;33.30;98571.64;1800438;78;21171;-86
2021/03/29 07:32:03;;;;;;;12.73;4.20;;;;;;;15.98;33.24;98569.72;1795995;78;21127;-84
2021/03/29 07:34:51;;;;;;;9.00;4.58;;;;;;;16.04;33.19;98571.41;1794756;78;21141;-86
2021/03/29 07:37:43;;;;;;;13.83;4.35;;;;;;;16.12;33.55;98564.12;1795728;78;21127;-83
2021/03/29 07:40:22;;;;;;;11.50;4.65;;;;;;;16.30;31.91;98568.94;1797607;77;21581;-85
2021/03/29 07:42:51;;;;;;;8.38;4.37;;;;;;;16.43;32.29;98568.78;1807164;79;21567;-81
2021/03/29 07:45:36;;;;;;;11.30;4.92;;;;;;;16.52;32.32;98568.91;1810376;77;21147;-86
2021/03/29 07:48:05;;;;;;;13.28;4.15;;;;;;;16.58;32.56;98565.36;1804026;79;21158;-83
2021/03/29 07:50:39;;;;;;;16.95;4.30;;;;;;;16.71;31.63;98566.89;1796888;79;21162;-84
2021/03/29 07:53:17;;;;;;;9.48;3.87;;;;;;;16.74;31.64;98560.97;1814827;78;21139;-85
2021/03/29 07:55:46;;;;;;;9.33;3.92;;;;;;;16.69;31.33;98560.02;1800351;79;21130;-81
2021/03/29 07:58:21;;;;;;;7.65;2.92;;;;;;;16.58;31.18;98556.05;1817744;78;21159;-82
2021/03/29 08:01:06;;;;;;;5.72;2.60;;;;;;;16.51;30.69;98556.56;1814295;79;21524;-86
2021/03/29 08:03:37;;;;;;;9.05;2.80;;;;;;;16.52;29.74;98556.92;1805476;79;21146;-81
2021/03/29 08:06:07;;;;;;;7.08;3.35;;;;;;;16.29;29.63;98561.45;1798286;79;21119;-86
2021/03/29 08:08:40;;;;;;;5.37;2.60;;;;;;;16.37;29.30;98559.52;1799540;79;21158;-84
2021/03/29 08:11:20;;;;;;;4.15;2.52;;;;;;;16.16;29.67;98558.94;1784590;79;21120;-80
2021/03/29 08:13:52;;;;;;;3.65;2.37;;;;;;;15.97;30.15;98557.38;1804968;78;21191;-80
2021/03/29 08:16:29;;;;;;;6.97;3.02;;;;;;;15.72;29.72;98557.97;1804353;79;21127;-82
2021/03/29 08:19:14;;;;;;;;;;;;;;;15.74;29.94;98558.20;1819979;78;21108;-81
2021/03/29 08:22:09;;;;;;;7.60;3.55;;;;;;;15.89;28.61;98565.95;1783998;79;20143;-86
2021/03/29 08:24:44;;;;;;;7.03;2.55;;;;;;;16.11;30.32;98567.75;1784857;80;21180;-84
2021/03/29 08:27:20;;;;;;;6.20;2.90;;;;;;;16.22;29.82;98568.25;1802967;79;21139;-82
2021/03/29 08:29:49;;;;;;;;;;;;;;;15.74;29.21;98564.84;1819716;79;21144;-85
2021/03/29 08:32:33;;;;;;;7.85;2.72;;;;;;;15.66;26.29;98565.94;1802783;77;20415;-86
2021/03/29 08:35:11;;;;;;;3.77;2.10;;;;;;;15.49;28.66;98567.23;1799809;79;21088;-85
2021/03/29 08:37:52;;;;;;;6.12;3.05;;;;;;;15.16;29.42;98560.90;1808633;79;21143;-85
2021/03/29 08:40:32;;;;;;;9.30;2.70;;;;;;;14.82;28.87;98570.05;1785089;80;21143;-85
2021/03/29 08:43:06;;;;;;;4.33;2.05;;;;;;;14.78;30.01;98568.61;1805447;79;21120;-85
2021/03/29 08:45:35;;;;;;;2.80;1.50;;;;;;;14.66;29.57;98571.66;1803724;79;21120;-86
2021/03/29 08:48:05;;;;;;;3.87;2.42;;;;;;;14.57;27.84;98583.78;1813408;79;21576;-86
2021/03/29 08:50:38;;;;;;;4.50;1.77;;;;;;;13.53;28.87;98572.54;1809146;79;21590;-86
2021/03/29 08:53:09;;;;;;;5.97;2.40;;;;;;;12.91;28.96;98582.42;1784979;80;21594;-87
2021/03/29 08:55:41;;;;;;;3.90;2.05;;;;;;;12.49;29.60;98581.16;1797318;79;21601;-87
2021/03/29 08:58:10;;;;;;;3.37;1.65;;;;;;;12.27;30.00;98583.02;1809185;79;21127;-84
2021/03/29 09:00:41;;;;;;;3.30;2.25;;;;;;;12.12;30.13;98575.09;1807946;78;21187;-86
2021/03/29 09:03:20;;;;;;;5.70;1.70;;;;;;;11.81;30.58;98575.67;1799869;79;21123;-86
2021/03/29 09:05:48;;;;;;;5.33;1.70;;;;;;;11.87;30.61;98577.92;1805700;79;21174;-88
2021/03/29 09:08:16;;;;;;;3.62;2.10;;;;;;;11.74;30.52;98582.73;1814276;79;21128;-83
2021/03/29 09:10:45;;;;;;;4.75;2.20;;;;;;;11.62;30.66;98581.22;1806159;79;21147;-88
2021/03/29 09:13:16;;;;;;;3.37;2.00;;;;;;;11.56;30.81;98586.40;1803040;79;21593;-86
2021/03/29 09:15:49;;;;;;;5.30;1.82;;;;;;;11.59;31.07;98584.07;1811469;79;21545;-85
2021/03/29 09:18:24;;;;;;;3.05;1.80;;;;;;;11.83;30.97;98585.65;1801955;79;21167;-85
2021/03/29 09:20:53;;;;;;;9.30;2.33;;;;;;;11.94;31.11;98582.81;1798788;79;21149;-85
2021/03/29 09:26:08;;;;;;;4.95;2.80;;;;;;;11.50;31.18;98581.50;1836213;77;24770;-80
2021/03/29 09:28:40;;;;;;;2.98;1.98;;;;;;;11.39;31.57;98576.88;1822024;79;21512;-86
2021/03/29 09:31:14;;;;;;;4.10;1.67;;;;;;;11.34;31.37;98579.41;1818513;79;21201;-83
2021/03/29 09:33:43;;;;;;;3.85;2.42;;;;;;;11.24;31.32;98578.64;1821950;79;21172;-87
2021/03/29 09:36:15;;;;;;;3.98;1.90;;;;;;;11.12;31.83;98580.67;1814898;77;22227;-85
2021/03/29 09:38:53;;;;;;;4.65;2.55;;;;;;;10.94;31.90;98571.58;1773317;78;21295;-84
2021/03/29 09:41:23;;;;;;;7.87;2.37;;;;;;;10.85;32.03;98583.15;1795833;78;21131;-84
2021/03/29 09:43:54;;;;;;;5.20;2.25;;;;;;;10.91;32.36;98591.53;1774313;78;21143;-85
2021/03/29 09:46:30;;;;;;;10.55;2.90;;;;;;;10.92;32.27;98577.41;1743039;81;21178;-80
2021/03/29 09:49:13;;;;;;;3.60;1.87;;;;;;;11.17;32.73;98574.67;1755623;81;21212;-90
2021/03/29 09:51:45;;;;;;;8.40;3.17;;;;;;;11.33;31.40;98577.22;1741905;81;21212;-85
2021/03/29 09:54:32;;;;;;;5.20;2.50;;;;;;;11.40;31.96;98565.83;1749036;81;21576;-83
2021/03/29 09:57:22;;;;;;;5.28;2.75;;;;;;;11.52;31.86;98566.88;1743138;82;21207;-90
2021/03/29 09:59:52;;;;;;;8.68;3.12;;;;;;;11.76;31.79;98563.20;1743826;81;21172;-84
2021/03/29 10:02:29;;;;;;;4.05;2.37;;;;;;;11.90;31.36;98566.31;1743233;82;21163;-87
2021/03/29 10:05:11;;;;;;;3.92;1.90;;;;;;;12.15;31.44;98564.33;1743007;82;21191;-85
2021/03/29 10:07:54;;;;;;;4.55;2.10;;;;;;;12.31;30.86;98562.89;1746232;81;21144;-85
2021/03/29 10:10:31;;;;;;;10.08;3.00;;;;;;;12.21;30.34;98563.09;1770497;81;21168;-82
2021/03/29 10:13:12;;;;;;;3.92;2.25;;;;;;;12.24;30.64;98564.23;1743255;82;21120;-85
2021/03/29 10:15:42;;;;;;;3.22;1.98;;;;;;;12.39;30.02;98567.66;1743052;81;21146;-88
2021/03/29 10:18:14;;;;;;;3.35;1.82;;;;;;;12.24;29.93;98566.02;1743177;82;21229;-91
2021/03/29 10:20:45;;;;;;;6.55;2.62;;;;;;;12.01;29.94;98569.17;1744462;81;21180;-84
2021/03/29 10:23:30;;;;;;;4.53;2.90;;;;;;;11.82;30.84;98544.35;1740516;81;21196;-84
2021/03/29 10:26:30;;;;;;;8.40;2.90;;;;;;;12.10;30.75;98557.64;1731595;82;21190;-84
2021/03/29 10:29:02;;;;;;;4.30;2.00;;;;;;;12.17;30.26;98553.66;1714071;82;21164;-86
2021/03/29 10:31:33;;;;;;;5.70;2.15;;;;;;;12.23;30.00;98556.38;1747671;82;21179;-88
2021/03/29 10:34:01;;;;;;;4.95;2.50;;;;;;;12.33;30.02;98553.53;1717663;82;21137;-85
2021/03/29 10:36:30;;;;;;;6.50;2.27;;;;;;;12.20;30.30;98550.83;1740378;82;21116;-84
2021/03/29 10:38:59;;;;;;;3.30;2.02;;;;;;;12.11;29.79;98556.70;1740866;82;21163;-88
2021/03/29 10:41:26;;;;;;;7.03;2.67;;;;;;;11.88;29.88;98555.84;1740752;82;21159;-89
2021/03/29 10:43:53;;;;;;;5.78;2.30;;;;;;;11.78;30.36;98549.44;1732873;83;21302;-85
2021/03/29 10:46:21;;;;;;;4.08;2.30;;;;;;;11.93;30.38;98543.67;1733038;82;21837;-90
2021/03/29 10:48:48;;;;;;;12.00;3.10;;;;;;;11.95;30.35;98548.84;1734211;82;21167;-84
2021/03/29 10:51:16;;;;;;;5.17;2.02;;;;;;;11.89;30.38;98546.11;1757761;81;21111;-84
2021/03/29 10:53:43;;;;;;;11.75;2.42;;;;;;;11.81;30.11;98555.86;1738001;82;21151;-87
2021/03/29 10:56:11;;;;;;;9.70;2.98;;;;;;;11.73;30.33;98543.61;1732926;83;21131;-84
2021/03/29 10:58:38;;;;;;;6.42;2.37;;;;;;;11.80;30.71;98541.41;1731791;83;21159;-89
2021/03/29 11:01:06;;;;;;;5.20;2.00;;;;;;;12.03;30.66;98547.47;1719749;83;21132;-86
2021/03/29 11:03:33;;;;;;;6.60;2.42;;;;;;;12.14;30.06;98536.69;1728081;83;21171;-84
2021/03/29 11:06:01;;;;;;;4.50;2.27;;;;;;;12.27;29.85;98530.14;1724726;83;21164;-86
2021/03/29 11:08:30;;;;;;;6.47;2.52;;;;;;;12.56;30.17;98534.84;1723248;82;21178;-85
2021/03/29 11:10:59;;;;;;;5.97;2.30;;;;;;;12.87;30.43;98524.88;1745303;82;21145;-88
2021/03/29 11:13:26;;;;;;;8.13;2.30;;;;;;;13.16;30.21;98526.50;1724937;83;21240;-86
2021/03/29 11:15:55;;;;;;;5.72;2.20;;;;;;;13.26;29.22;98524.92;1739727;82;21207;-87
2021/03/29 11:18:22;;;;;;;8.00;2.67;;;;;;;13.31;29.46;98525.47;1704356;83;21470;-83
2021/03/29 11:20:50;;;;;;;6.25;2.67;;;;;;;13.30;29.29;98525.55;1715585;83;21174;-82
2021/03/29 11:23:20;;;;;;;2.52;1.77;;;;;;;13.42;28.83;98522.94;1771180;81;21143;-87
2021/03/29 11:25:47;;;;;;;4.15;2.50;;;;;;;13.51;27.28;98527.22;1705155;82;21211;-83
2021/03/29 11:28:14;;;;;;;5.75;2.70;;;;;;;13.57;29.25;98526.32;1719850;83;21625;-85
2021/03/29 11:30:42;;;;;;;5.70;2.62;;;;;;;13.77;29.04;98521.42;1713179;82;21293;-86
2021/03/29 11:33:09;;;;;;;2.58;1.75;;;;;;;13.86;28.70;98519.94;1704275;84;21589;-83
2021/03/29 11:35:37;;;;;;;7.28;2.40;;;;;;;13.54;27.04;98523.04;1733363;83;21238;-84
2021/03/29 11:38:05;;;;;;;7.22;3.22;;;;;;;13.10;28.01;98514.06;1733240;82;21220;-85
2021/03/29 11:40:32;;;;;;;4.87;2.20;;;;;;;13.08;29.21;98517.28;1704347;84;22310;-83
2021/03/29 11:43:00;;;;;;;4.65;2.85;;;;;;;13.34;29.04;98519.11;1735453;82;21178;-84
2021/03/29 11:45:28;;;;;;;7.58;2.33;;;;;;;13.25;28.22;98516.60;1736456;82;21151;-84
2021/03/29 11:47:55;;;;;;;6.75;2.62;;;;;;;13.26;28.17;98522.27;1736118;82;21517;-83
2021/03/29 11:50:23;;;;;;;5.33;2.40;;;;;;;13.24;28.88;98517.09;1736788;82;21248;-85
2021/03/29 11:52:51;;;;;;;8.40;2.67;;;;;;;13.42;29.29;98516.80;1737244;82;21160;-83
2021/03/29 11:55:18;;;;;;;5.92;1.92;;;;;;;13.58;29.20;98519.23;1739436;82;21160;-84
2021/03/29 11:57:48;;;;;;;8.18;3.20;;;;;;;13.64;27.53;98517.47;1729152;82;21633;-81
2021/03/29 12:03:10;;;;;;;7.67;2.40;;;;;;;13.26;28.13;98520.48;1793586;79;24795;-85
2021/03/29 12:05:37;;;;;;;8.75;2.27;;;;;;;13.15;27.79;98519.50;1794676;78;21104;-84
2021/03/29 12:08:17;;;;;;;7.22;2.33;;;;;;;13.17;28.31;98514.96;1799695;80;21168;-86
2021/03/29 12:13:27;;;;;;;4.10;2.10;;;;;;;12.79;28.15;98520.09;1794201;80;21187;-84
2021/03/29 12:15:56;;;;;;;10.20;2.77;;;;;;;12.50;28.48;98516.74;1759449;81;21181;-90
2021/03/29 12:18:33;;;;;;;9.38;2.80;;;;;;;12.23;29.10;98503.52;1739100;82;21185;-86
2021/03/29 12:20:52;;;;;;;6.30;2.17;;;;;;;12.09;29.61;98514.52;1742877;81;22165;-82
2021/03/29 12:23:21;;;;;;;3.92;1.50;;;;;;;12.14;29.70;98513.73;1738917;82;21191;-81
2021/03/29 12:25:52;;;;;;;5.37;2.72;;;;;;;12.18;29.51;98509.96;1741392;81;21175;-84
2021/03/29 12:28:21;;;;;;;8.83;2.92;;;;;;;12.17;30.10;98511.36;1726792;82;21173;-83
2021/03/29 12:30:50;;;;;;;10.03;2.80;;;;;;;12.40;30.22;98511.19;1738768;82;21169;-81
2021/03/29 12:33:18;;;;;;;8.83;2.72;;;;;;;12.57;30.15;98501.33;1761271;81;21159;-85
2021/03/29 12:35:46;;;;;;;7.78;2.87;;;;;;;12.66;30.07;98498.07;1756662;81;22546;-81
2021/03/29 12:38:14;;;;;;;3.65;2.37;;;;;;;12.72;30.11;98498.97;1759697;81;21203;-87
2021/03/29 12:40:43;;;;;;;5.35;2.40;;;;;;;12.89;30.11;98498.31;1737025;82;21202;-87
2021/03/29 12:43:16;;;;;;;9.78;4.25;;;;;;;12.95;29.70;98504.50;1737091;82;21175;-85
2021/03/29 12:45:42;;;;;;;7.35;2.80;;;;;;;12.90;30.20;98492.06;1735054;82;21273;-88
2021/03/29 12:48:13;;;;;;;5.70;2.40;;;;;;;13.07;30.13;98492.25;1727958;82;21167;-82
2021/03/29 12:50:41;;;;;;;9.15;2.87;;;;;;;13.08;29.67;98487.34;1727774;82;21195;-81
2021/03/29 12:53:10;;;;;;;7.50;2.30;;;;;;;13.19;30.15;98494.04;1727635;82;21179;-83
2021/03/29 12:55:37;;;;;;;6.00;2.98;;;;;;;13.17;29.98;98490.67;1702400;83;21208;-85
2021/03/29 12:58:04;;;;;;;7.65;2.83;;;;;;;13.20;30.25;98490.93;1727699;82;21183;-84
2021/03/29 13:00:32;;;;;;;9.20;3.80;;;;;;;13.27;30.07;98490.38;1752439;81;21199;-85
2021/03/29 13:03:00;;;;;;;8.93;2.58;;;;;;;13.30;29.59;98492.45;1753598;81;21180;-82
2021/03/29 13:08:02;;;;;;;9.00;3.05;;;;;;;12.95;29.65;98480.22;1750178;82;21657;-83
2021/03/29 13:13:00;;;;;;;6.03;2.75;;;;;;;13.05;29.59;98488.37;1722743;82;21183;-81
2021/03/29 13:15:28;;;;;;;5.17;2.83;;;;;;;13.08;29.85;98493.47;1710929;81;21206;-88
2021/03/29 13:17:56;;;;;;;7.42;2.30;;;;;;;13.10;29.93;98491.56;1745354;82;21162;-86
2021/03/29 13:20:25;;;;;;;8.40;3.45;;;;;;;13.01;29.58;98488.22;1753349;82;21290;-87
2021/03/29 13:22:54;;;;;;;7.62;2.45;;;;;;;12.69;29.50;98485.11;1705610;83;21185;-81
2021/03/29 13:25:30;;;;;;;8.68;2.75;;;;;;;12.58;29.52;98484.48;1722313;83;21640;-88
2021/03/29 13:28:00;;;;;;;6.28;2.45;;;;;;;12.37;30.09;98487.61;1726794;82;21195;-84
2021/03/29 13:30:28;;;;;;;8.10;3.27;;;;;;;12.28;30.36;98481.12;1728340;82;21167;-84